sensor_id;sensor_type;location;lat;lon;timestamp;P1;durP1;ratioP1;P2;durP2;ratioP2
10232;SDS011;5161;48.174;11.756;2024-01-25T00:00:24;14.00;;;3.80;;
10232;SDS011;5161;48.174;11.756;2024-01-25T00:02:50;10.53;;;3.10;;
10232;SDS011;5161;48.174;11.756;2024-01-25T00:05:15;9.40;;;2.83;;
10232;SDS011;5161;48.174;11.756;2024-01-25T00:07:50;11.50;;;3.53;;
10232;SDS011;5161;48.174;11.756;2024-01-25T00:10:16;13.43;;;3.90;;
10232;SDS011;5161;48.174;11.756;2024-01-25T00:12:42;7.37;;;3.40;;
10232;SDS011;5161;48.174;11.756;2024-01-25T00:15:08;13.07;;;3.67;;
10232;SDS011;5161;48.174;11.756;2024-01-25T00:17:35;10.27;;;3.23;;
10232;SDS011;5161;48.174;11.756;2024-01-25T00:20:00;13.73;;;3.23;;
10232;SDS011;5161;48.174;11.756;2024-01-25T00:22:27;9.07;;;3.30;;
10232;SDS011;5161;48.174;11.756;2024-01-25T00:24:52;9.27;;;3.17;;
10232;SDS011;5161;48.174;11.756;2024-01-25T00:27:18;13.00;;;3.80;;
10232;SDS011;5161;48.174;11.756;2024-01-25T00:29:43;14.63;;;3.73;;
10232;SDS011;5161;48.174;11.756;2024-01-25T00:32:09;15.00;;;3.83;;
10232;SDS011;5161;48.174;11.756;2024-01-25T00:34:34;10.97;;;3.53;;
10232;SDS011;5161;48.174;11.756;2024-01-25T00:37:00;8.43;;;3.70;;
10232;SDS011;5161;48.174;11.756;2024-01-25T00:39:26;7.13;;;3.00;;
10232;SDS011;5161;48.174;11.756;2024-01-25T00:41:52;11.50;;;3.53;;
10232;SDS011;5161;48.174;11.756;2024-01-25T00:44:27;11.43;;;3.83;;
10232;SDS011;5161;48.174;11.756;2024-01-25T00:46:53;7.53;;;3.20;;
10232;SDS011;5161;48.174;11.756;2024-01-25T00:49:19;8.67;;;3.77;;
10232;SDS011;5161;48.174;11.756;2024-01-25T00:51:46;6.13;;;2.97;;
10232;SDS011;5161;48.174;11.756;2024-01-25T00:54:13;7.17;;;3.30;;
10232;SDS011;5161;48.174;11.756;2024-01-25T00:56:41;7.20;;;2.90;;
10232;SDS011;5161;48.174;11.756;2024-01-25T00:59:06;7.73;;;3.83;;
10232;SDS011;5161;48.174;11.756;2024-01-25T01:01:32;7.03;;;3.10;;
10232;SDS011;5161;48.174;11.756;2024-01-25T01:03:59;8.10;;;3.03;;
10232;SDS011;5161;48.174;11.756;2024-01-25T01:06:25;9.90;;;3.47;;
10232;SDS011;5161;48.174;11.756;2024-01-25T01:08:51;8.10;;;3.37;;
10232;SDS011;5161;48.174;11.756;2024-01-25T01:11:17;5.53;;;3.10;;
10232;SDS011;5161;48.174;11.756;2024-01-25T01:13:43;9.20;;;3.53;;
10232;SDS011;5161;48.174;11.756;2024-01-25T01:16:08;9.20;;;2.83;;
10232;SDS011;5161;48.174;11.756;2024-01-25T01:18:34;10.80;;;3.73;;
10232;SDS011;5161;48.174;11.756;2024-01-25T01:21:00;7.90;;;3.53;;
10232;SDS011;5161;48.174;11.756;2024-01-25T01:23:25;8.27;;;3.70;;
10232;SDS011;5161;48.174;11.756;2024-01-25T01:25:51;10.50;;;3.20;;
10232;SDS011;5161;48.174;11.756;2024-01-25T01:28:16;11.03;;;3.20;;
10232;SDS011;5161;48.174;11.756;2024-01-25T01:30:42;7.83;;;3.10;;
10232;SDS011;5161;48.174;11.756;2024-01-25T01:33:08;8.83;;;3.43;;
10232;SDS011;5161;48.174;11.756;2024-01-25T01:35:34;9.77;;;3.33;;
10232;SDS011;5161;48.174;11.756;2024-01-25T01:37:59;11.77;;;4.03;;
10232;SDS011;5161;48.174;11.756;2024-01-25T01:40:25;10.50;;;3.60;;
10232;SDS011;5161;48.174;11.756;2024-01-25T01:42:50;11.20;;;3.90;;
10232;SDS011;5161;48.174;11.756;2024-01-25T01:45:16;8.10;;;3.50;;
10232;SDS011;5161;48.174;11.756;2024-01-25T01:47:41;9.67;;;3.37;;
10232;SDS011;5161;48.174;11.756;2024-01-25T01:50:08;10.73;;;3.47;;
10232;SDS011;5161;48.174;11.756;2024-01-25T01:52:34;10.03;;;3.20;;
10232;SDS011;5161;48.174;11.756;2024-01-25T01:55:00;11.37;;;3.47;;
10232;SDS011;5161;48.174;11.756;2024-01-25T01:57:26;8.70;;;3.03;;
10232;SDS011;5161;48.174;11.756;2024-01-25T01:59:52;12.23;;;3.47;;
10232;SDS011;5161;48.174;11.756;2024-01-25T02:02:18;13.03;;;3.80;;
10232;SDS011;5161;48.174;11.756;2024-01-25T02:04:44;10.73;;;3.80;;
10232;SDS011;5161;48.174;11.756;2024-01-25T02:07:09;10.60;;;3.50;;
10232;SDS011;5161;48.174;11.756;2024-01-25T02:09:36;8.77;;;3.40;;
10232;SDS011;5161;48.174;11.756;2024-01-25T02:12:02;11.50;;;4.13;;
10232;SDS011;5161;48.174;11.756;2024-01-25T02:14:28;12.80;;;4.13;;
10232;SDS011;5161;48.174;11.756;2024-01-25T02:16:53;7.50;;;3.53;;
10232;SDS011;5161;48.174;11.756;2024-01-25T02:19:19;12.03;;;3.77;;
10232;SDS011;5161;48.174;11.756;2024-01-25T02:21:44;10.33;;;3.53;;
10232;SDS011;5161;48.174;11.756;2024-01-25T02:24:10;9.40;;;3.33;;
10232;SDS011;5161;48.174;11.756;2024-01-25T02:26:36;13.00;;;3.67;;
10232;SDS011;5161;48.174;11.756;2024-01-25T02:29:01;7.33;;;2.97;;
10232;SDS011;5161;48.174;11.756;2024-01-25T02:31:29;9.10;;;3.20;;
10232;SDS011;5161;48.174;11.756;2024-01-25T02:33:55;12.70;;;3.47;;
10232;SDS011;5161;48.174;11.756;2024-01-25T02:36:24;6.87;;;3.23;;
10232;SDS011;5161;48.174;11.756;2024-01-25T02:38:49;10.27;;;3.30;;
10232;SDS011;5161;48.174;11.756;2024-01-25T02:41:15;11.70;;;3.83;;
10232;SDS011;5161;48.174;11.756;2024-01-25T02:43:40;13.47;;;3.83;;
10232;SDS011;5161;48.174;11.756;2024-01-25T02:46:07;7.07;;;3.10;;
10232;SDS011;5161;48.174;11.756;2024-01-25T02:48:32;9.30;;;3.43;;
10232;SDS011;5161;48.174;11.756;2024-01-25T02:50:59;11.30;;;3.97;;
10232;SDS011;5161;48.174;11.756;2024-01-25T02:53:25;9.33;;;3.90;;
10232;SDS011;5161;48.174;11.756;2024-01-25T02:55:50;9.03;;;3.63;;
10232;SDS011;5161;48.174;11.756;2024-01-25T02:58:16;11.07;;;3.63;;
10232;SDS011;5161;48.174;11.756;2024-01-25T03:00:41;13.60;;;4.20;;
10232;SDS011;5161;48.174;11.756;2024-01-25T03:03:07;9.20;;;3.10;;
10232;SDS011;5161;48.174;11.756;2024-01-25T03:05:32;8.30;;;3.17;;
10232;SDS011;5161;48.174;11.756;2024-01-25T03:07:59;10.70;;;3.43;;
10232;SDS011;5161;48.174;11.756;2024-01-25T03:10:25;11.67;;;3.47;;
10232;SDS011;5161;48.174;11.756;2024-01-25T03:12:50;12.70;;;3.90;;
10232;SDS011;5161;48.174;11.756;2024-01-25T03:15:16;11.57;;;3.00;;
10232;SDS011;5161;48.174;11.756;2024-01-25T03:17:42;6.67;;;3.27;;
10232;SDS011;5161;48.174;11.756;2024-01-25T03:20:08;10.03;;;3.90;;
10232;SDS011;5161;48.174;11.756;2024-01-25T03:22:34;8.40;;;3.10;;
10232;SDS011;5161;48.174;11.756;2024-01-25T03:25:00;13.20;;;3.40;;
10232;SDS011;5161;48.174;11.756;2024-01-25T03:27:25;10.40;;;3.77;;
10232;SDS011;5161;48.174;11.756;2024-01-25T03:29:51;9.60;;;2.70;;
10232;SDS011;5161;48.174;11.756;2024-01-25T03:32:16;9.10;;;3.20;;
10232;SDS011;5161;48.174;11.756;2024-01-25T03:34:43;8.70;;;3.30;;
10232;SDS011;5161;48.174;11.756;2024-01-25T03:37:08;13.33;;;4.13;;
10232;SDS011;5161;48.174;11.756;2024-01-25T03:39:34;8.90;;;3.03;;
10232;SDS011;5161;48.174;11.756;2024-01-25T03:42:00;12.03;;;3.70;;
10232;SDS011;5161;48.174;11.756;2024-01-25T03:44:25;8.27;;;3.27;;
10232;SDS011;5161;48.174;11.756;2024-01-25T03:46:52;8.33;;;2.87;;
10232;SDS011;5161;48.174;11.756;2024-01-25T03:49:18;8.17;;;2.40;;
10232;SDS011;5161;48.174;11.756;2024-01-25T03:51:44;5.97;;;2.70;;
10232;SDS011;5161;48.174;11.756;2024-01-25T03:54:09;8.20;;;2.90;;
10232;SDS011;5161;48.174;11.756;2024-01-25T03:56:35;9.90;;;3.20;;
10232;SDS011;5161;48.174;11.756;2024-01-25T03:59:00;8.50;;;3.13;;
10232;SDS011;5161;48.174;11.756;2024-01-25T04:01:26;10.60;;;3.53;;
10232;SDS011;5161;48.174;11.756;2024-01-25T04:03:51;10.63;;;3.20;;
10232;SDS011;5161;48.174;11.756;2024-01-25T04:06:17;10.40;;;3.40;;
10232;SDS011;5161;48.174;11.756;2024-01-25T04:08:42;9.00;;;3.37;;
10232;SDS011;5161;48.174;11.756;2024-01-25T04:11:08;7.27;;;3.30;;
10232;SDS011;5161;48.174;11.756;2024-01-25T04:13:34;11.33;;;3.63;;
10232;SDS011;5161;48.174;11.756;2024-01-25T04:16:00;7.77;;;3.23;;
10232;SDS011;5161;48.174;11.756;2024-01-25T04:18:26;11.20;;;3.57;;
10232;SDS011;5161;48.174;11.756;2024-01-25T04:20:51;10.13;;;3.70;;
10232;SDS011;5161;48.174;11.756;2024-01-25T04:23:17;9.33;;;2.57;;
10232;SDS011;5161;48.174;11.756;2024-01-25T04:25:43;7.90;;;2.70;;
10232;SDS011;5161;48.174;11.756;2024-01-25T04:28:09;7.30;;;2.97;;
10232;SDS011;5161;48.174;11.756;2024-01-25T04:30:34;7.33;;;2.83;;
10232;SDS011;5161;48.174;11.756;2024-01-25T04:33:00;10.40;;;3.00;;
10232;SDS011;5161;48.174;11.756;2024-01-25T04:35:26;7.80;;;2.80;;
10232;SDS011;5161;48.174;11.756;2024-01-25T04:37:52;6.10;;;2.40;;
10232;SDS011;5161;48.174;11.756;2024-01-25T04:40:17;7.23;;;2.87;;
10232;SDS011;5161;48.174;11.756;2024-01-25T04:42:44;7.80;;;2.63;;
10232;SDS011;5161;48.174;11.756;2024-01-25T04:45:09;7.20;;;2.57;;
10232;SDS011;5161;48.174;11.756;2024-01-25T04:47:37;7.83;;;3.00;;
10232;SDS011;5161;48.174;11.756;2024-01-25T04:50:03;6.80;;;2.70;;
10232;SDS011;5161;48.174;11.756;2024-01-25T04:52:29;8.13;;;3.03;;
10232;SDS011;5161;48.174;11.756;2024-01-25T04:54:55;9.10;;;2.93;;
10232;SDS011;5161;48.174;11.756;2024-01-25T04:57:20;8.67;;;3.33;;
10232;SDS011;5161;48.174;11.756;2024-01-25T04:59:46;6.70;;;2.90;;
10232;SDS011;5161;48.174;11.756;2024-01-25T05:02:11;11.13;;;3.40;;
10232;SDS011;5161;48.174;11.756;2024-01-25T05:04:37;9.40;;;2.90;;
10232;SDS011;5161;48.174;11.756;2024-01-25T05:07:02;10.40;;;3.40;;
10232;SDS011;5161;48.174;11.756;2024-01-25T05:09:28;7.73;;;2.80;;
10232;SDS011;5161;48.174;11.756;2024-01-25T05:11:54;9.63;;;2.93;;
10232;SDS011;5161;48.174;11.756;2024-01-25T05:14:23;7.90;;;2.97;;
10232;SDS011;5161;48.174;11.756;2024-01-25T05:16:49;8.77;;;2.93;;
10232;SDS011;5161;48.174;11.756;2024-01-25T05:19:14;8.10;;;3.13;;
10232;SDS011;5161;48.174;11.756;2024-01-25T05:21:40;8.50;;;2.73;;
10232;SDS011;5161;48.174;11.756;2024-01-25T05:24:05;5.73;;;2.60;;
10232;SDS011;5161;48.174;11.756;2024-01-25T05:26:32;10.63;;;2.60;;
10232;SDS011;5161;48.174;11.756;2024-01-25T05:28:58;7.13;;;3.23;;
10232;SDS011;5161;48.174;11.756;2024-01-25T05:31:23;9.93;;;2.70;;
10232;SDS011;5161;48.174;11.756;2024-01-25T05:33:49;7.53;;;3.30;;
10232;SDS011;5161;48.174;11.756;2024-01-25T05:36:14;11.70;;;5.20;;
10232;SDS011;5161;48.174;11.756;2024-01-25T05:38:40;18.30;;;6.20;;
10232;SDS011;5161;48.174;11.756;2024-01-25T05:41:05;10.57;;;4.57;;
10232;SDS011;5161;48.174;11.756;2024-01-25T05:43:31;12.40;;;5.10;;
10232;SDS011;5161;48.174;11.756;2024-01-25T05:45:58;12.67;;;4.53;;
10232;SDS011;5161;48.174;11.756;2024-01-25T05:48:23;9.90;;;4.20;;
10232;SDS011;5161;48.174;11.756;2024-01-25T05:50:49;8.07;;;3.47;;
10232;SDS011;5161;48.174;11.756;2024-01-25T05:53:14;12.27;;;4.63;;
10232;SDS011;5161;48.174;11.756;2024-01-25T05:55:41;11.03;;;4.80;;
10232;SDS011;5161;48.174;11.756;2024-01-25T05:58:07;9.63;;;4.07;;
10232;SDS011;5161;48.174;11.756;2024-01-25T06:00:32;8.87;;;4.00;;
10232;SDS011;5161;48.174;11.756;2024-01-25T06:02:58;15.07;;;5.63;;
10232;SDS011;5161;48.174;11.756;2024-01-25T06:05:24;12.20;;;4.33;;
10232;SDS011;5161;48.174;11.756;2024-01-25T06:07:49;12.47;;;4.17;;
10232;SDS011;5161;48.174;11.756;2024-01-25T06:10:15;12.10;;;4.00;;
10232;SDS011;5161;48.174;11.756;2024-01-25T06:12:41;12.33;;;4.27;;
10232;SDS011;5161;48.174;11.756;2024-01-25T06:15:06;13.73;;;4.33;;
10232;SDS011;5161;48.174;11.756;2024-01-25T06:17:32;8.50;;;3.37;;
10232;SDS011;5161;48.174;11.756;2024-01-25T06:19:58;13.47;;;3.67;;
10232;SDS011;5161;48.174;11.756;2024-01-25T06:22:23;12.23;;;3.33;;
10232;SDS011;5161;48.174;11.756;2024-01-25T06:24:49;9.60;;;2.90;;
10232;SDS011;5161;48.174;11.756;2024-01-25T06:27:14;9.37;;;3.87;;
10232;SDS011;5161;48.174;11.756;2024-01-25T06:29:40;11.80;;;3.40;;
10232;SDS011;5161;48.174;11.756;2024-01-25T06:32:06;8.20;;;3.03;;
10232;SDS011;5161;48.174;11.756;2024-01-25T06:34:31;9.87;;;3.40;;
10232;SDS011;5161;48.174;11.756;2024-01-25T06:36:57;13.83;;;4.00;;
10232;SDS011;5161;48.174;11.756;2024-01-25T06:39:22;10.83;;;3.50;;
10232;SDS011;5161;48.174;11.756;2024-01-25T06:41:48;10.93;;;3.40;;
10232;SDS011;5161;48.174;11.756;2024-01-25T06:44:14;13.43;;;3.50;;
10232;SDS011;5161;48.174;11.756;2024-01-25T06:46:39;9.53;;;3.90;;
10232;SDS011;5161;48.174;11.756;2024-01-25T06:49:05;8.33;;;3.40;;
10232;SDS011;5161;48.174;11.756;2024-01-25T06:51:31;9.17;;;3.30;;
10232;SDS011;5161;48.174;11.756;2024-01-25T06:53:57;9.40;;;3.17;;
10232;SDS011;5161;48.174;11.756;2024-01-25T06:56:22;10.70;;;3.57;;
10232;SDS011;5161;48.174;11.756;2024-01-25T06:58:48;11.00;;;3.83;;
10232;SDS011;5161;48.174;11.756;2024-01-25T07:01:19;11.10;;;3.77;;
10232;SDS011;5161;48.174;11.756;2024-01-25T07:03:45;8.27;;;3.83;;
10232;SDS011;5161;48.174;11.756;2024-01-25T07:06:11;12.87;;;3.60;;
10232;SDS011;5161;48.174;11.756;2024-01-25T07:08:36;13.53;;;3.53;;
10232;SDS011;5161;48.174;11.756;2024-01-25T07:11:02;10.43;;;3.73;;
10232;SDS011;5161;48.174;11.756;2024-01-25T07:13:28;11.20;;;3.40;;
10232;SDS011;5161;48.174;11.756;2024-01-25T07:15:53;10.50;;;3.60;;
10232;SDS011;5161;48.174;11.756;2024-01-25T07:18:19;8.57;;;3.50;;
10232;SDS011;5161;48.174;11.756;2024-01-25T07:20:44;9.83;;;3.47;;
10232;SDS011;5161;48.174;11.756;2024-01-25T07:23:10;10.37;;;4.00;;
10232;SDS011;5161;48.174;11.756;2024-01-25T07:25:35;12.60;;;3.53;;
10232;SDS011;5161;48.174;11.756;2024-01-25T07:28:02;14.03;;;4.60;;
10232;SDS011;5161;48.174;11.756;2024-01-25T07:30:27;12.17;;;3.50;;
10232;SDS011;5161;48.174;11.756;2024-01-25T07:32:53;10.30;;;3.43;;
10232;SDS011;5161;48.174;11.756;2024-01-25T07:35:18;9.83;;;3.70;;
10232;SDS011;5161;48.174;11.756;2024-01-25T07:37:45;9.93;;;3.53;;
10232;SDS011;5161;48.174;11.756;2024-01-25T07:40:10;9.57;;;3.53;;
10232;SDS011;5161;48.174;11.756;2024-01-25T07:42:36;10.70;;;3.53;;
10232;SDS011;5161;48.174;11.756;2024-01-25T07:45:02;10.00;;;3.67;;
10232;SDS011;5161;48.174;11.756;2024-01-25T07:47:28;11.57;;;4.10;;
10232;SDS011;5161;48.174;11.756;2024-01-25T07:49:53;14.73;;;4.07;;
10232;SDS011;5161;48.174;11.756;2024-01-25T07:52:19;10.83;;;3.80;;
10232;SDS011;5161;48.174;11.756;2024-01-25T07:54:44;9.67;;;4.10;;
10232;SDS011;5161;48.174;11.756;2024-01-25T07:57:10;11.73;;;3.90;;
10232;SDS011;5161;48.174;11.756;2024-01-25T07:59:35;12.80;;;3.83;;
10232;SDS011;5161;48.174;11.756;2024-01-25T08:02:01;11.83;;;4.47;;
10232;SDS011;5161;48.174;11.756;2024-01-25T08:04:27;13.80;;;4.00;;
10232;SDS011;5161;48.174;11.756;2024-01-25T08:06:52;16.10;;;4.10;;
10232;SDS011;5161;48.174;11.756;2024-01-25T08:09:18;9.23;;;3.77;;
10232;SDS011;5161;48.174;11.756;2024-01-25T08:11:44;10.00;;;3.60;;
10232;SDS011;5161;48.174;11.756;2024-01-25T08:14:09;10.43;;;3.33;;
10232;SDS011;5161;48.174;11.756;2024-01-25T08:16:36;10.43;;;3.67;;
10232;SDS011;5161;48.174;11.756;2024-01-25T08:19:01;9.97;;;4.17;;
10232;SDS011;5161;48.174;11.756;2024-01-25T08:21:27;12.17;;;4.13;;
10232;SDS011;5161;48.174;11.756;2024-01-25T08:23:53;12.20;;;4.63;;
10232;SDS011;5161;48.174;11.756;2024-01-25T08:26:19;10.27;;;4.17;;
10232;SDS011;5161;48.174;11.756;2024-01-25T08:28:45;10.27;;;3.70;;
10232;SDS011;5161;48.174;11.756;2024-01-25T08:31:12;12.63;;;3.50;;
10232;SDS011;5161;48.174;11.756;2024-01-25T08:33:38;14.57;;;4.30;;
10232;SDS011;5161;48.174;11.756;2024-01-25T08:36:09;10.40;;;3.57;;
10232;SDS011;5161;48.174;11.756;2024-01-25T08:38:34;9.90;;;4.33;;
10232;SDS011;5161;48.174;11.756;2024-01-25T08:41:00;14.67;;;4.30;;
10232;SDS011;5161;48.174;11.756;2024-01-25T08:43:26;16.70;;;4.40;;
10232;SDS011;5161;48.174;11.756;2024-01-25T08:45:52;15.27;;;4.47;;
10232;SDS011;5161;48.174;11.756;2024-01-25T08:48:18;14.43;;;4.33;;
10232;SDS011;5161;48.174;11.756;2024-01-25T08:50:43;16.37;;;4.27;;
10232;SDS011;5161;48.174;11.756;2024-01-25T08:53:09;14.37;;;4.30;;
10232;SDS011;5161;48.174;11.756;2024-01-25T08:55:35;12.23;;;3.97;;
10232;SDS011;5161;48.174;11.756;2024-01-25T08:58:00;12.60;;;3.90;;
10232;SDS011;5161;48.174;11.756;2024-01-25T09:00:26;16.13;;;4.70;;
10232;SDS011;5161;48.174;11.756;2024-01-25T09:02:51;12.73;;;3.87;;
10232;SDS011;5161;48.174;11.756;2024-01-25T09:05:18;17.00;;;4.33;;
10232;SDS011;5161;48.174;11.756;2024-01-25T09:07:43;15.53;;;4.47;;
10232;SDS011;5161;48.174;11.756;2024-01-25T09:10:09;13.70;;;4.23;;
10232;SDS011;5161;48.174;11.756;2024-01-25T09:12:35;15.63;;;4.70;;
10232;SDS011;5161;48.174;11.756;2024-01-25T09:15:02;19.57;;;4.80;;
10232;SDS011;5161;48.174;11.756;2024-01-25T09:17:28;17.50;;;4.30;;
10232;SDS011;5161;48.174;11.756;2024-01-25T09:19:54;15.40;;;3.80;;
10232;SDS011;5161;48.174;11.756;2024-01-25T09:22:23;13.87;;;3.83;;
10232;SDS011;5161;48.174;11.756;2024-01-25T09:24:49;16.20;;;4.83;;
10232;SDS011;5161;48.174;11.756;2024-01-25T09:27:14;11.90;;;3.77;;
10232;SDS011;5161;48.174;11.756;2024-01-25T09:29:40;11.50;;;3.90;;
10232;SDS011;5161;48.174;11.756;2024-01-25T09:32:07;20.10;;;4.57;;
10232;SDS011;5161;48.174;11.756;2024-01-25T09:34:33;15.03;;;4.27;;
10232;SDS011;5161;48.174;11.756;2024-01-25T09:37:03;12.27;;;3.63;;
10232;SDS011;5161;48.174;11.756;2024-01-25T09:39:30;10.63;;;3.73;;
10232;SDS011;5161;48.174;11.756;2024-01-25T09:41:56;16.60;;;3.80;;
10232;SDS011;5161;48.174;11.756;2024-01-25T09:44:22;15.37;;;4.13;;
10232;SDS011;5161;48.174;11.756;2024-01-25T09:46:48;14.20;;;3.70;;
10232;SDS011;5161;48.174;11.756;2024-01-25T09:49:16;16.10;;;4.70;;
10232;SDS011;5161;48.174;11.756;2024-01-25T09:51:42;12.93;;;3.97;;
10232;SDS011;5161;48.174;11.756;2024-01-25T09:54:08;12.83;;;4.20;;
10232;SDS011;5161;48.174;11.756;2024-01-25T09:56:35;13.37;;;3.87;;
10232;SDS011;5161;48.174;11.756;2024-01-25T09:59:01;16.37;;;4.23;;
10232;SDS011;5161;48.174;11.756;2024-01-25T10:01:27;12.13;;;4.63;;
10232;SDS011;5161;48.174;11.756;2024-01-25T10:03:53;17.00;;;3.73;;
10232;SDS011;5161;48.174;11.756;2024-01-25T10:06:21;16.20;;;4.67;;
10232;SDS011;5161;48.174;11.756;2024-01-25T10:08:46;19.03;;;4.60;;
10232;SDS011;5161;48.174;11.756;2024-01-25T10:11:12;15.43;;;5.00;;
10232;SDS011;5161;48.174;11.756;2024-01-25T10:13:41;17.27;;;4.60;;
10232;SDS011;5161;48.174;11.756;2024-01-25T10:16:09;16.70;;;4.00;;
10232;SDS011;5161;48.174;11.756;2024-01-25T10:18:36;16.47;;;4.20;;
10232;SDS011;5161;48.174;11.756;2024-01-25T10:21:02;18.93;;;4.27;;
10232;SDS011;5161;48.174;11.756;2024-01-25T10:23:28;13.93;;;4.50;;
10232;SDS011;5161;48.174;11.756;2024-01-25T10:25:55;15.33;;;3.83;;
10232;SDS011;5161;48.174;11.756;2024-01-25T10:28:21;14.57;;;4.13;;
10232;SDS011;5161;48.174;11.756;2024-01-25T10:30:50;14.87;;;4.73;;
10232;SDS011;5161;48.174;11.756;2024-01-25T10:33:16;18.53;;;4.43;;
10232;SDS011;5161;48.174;11.756;2024-01-25T10:35:42;12.33;;;3.90;;
10232;SDS011;5161;48.174;11.756;2024-01-25T10:38:14;14.93;;;4.93;;
10232;SDS011;5161;48.174;11.756;2024-01-25T10:40:42;11.73;;;4.53;;
10232;SDS011;5161;48.174;11.756;2024-01-25T10:43:09;15.17;;;4.40;;
10232;SDS011;5161;48.174;11.756;2024-01-25T10:45:35;17.10;;;4.40;;
10232;SDS011;5161;48.174;11.756;2024-01-25T10:48:00;14.07;;;3.53;;
10232;SDS011;5161;48.174;11.756;2024-01-25T10:50:26;13.50;;;4.20;;
10232;SDS011;5161;48.174;11.756;2024-01-25T10:52:52;13.53;;;3.50;;
10232;SDS011;5161;48.174;11.756;2024-01-25T10:55:18;14.50;;;4.50;;
10232;SDS011;5161;48.174;11.756;2024-01-25T10:57:45;14.50;;;4.03;;
10232;SDS011;5161;48.174;11.756;2024-01-25T11:00:12;10.33;;;4.03;;
10232;SDS011;5161;48.174;11.756;2024-01-25T11:02:40;11.97;;;3.87;;
10232;SDS011;5161;48.174;11.756;2024-01-25T11:05:08;14.30;;;3.63;;
10232;SDS011;5161;48.174;11.756;2024-01-25T11:07:48;15.60;;;3.70;;
10232;SDS011;5161;48.174;11.756;2024-01-25T11:10:19;9.40;;;3.40;;
10232;SDS011;5161;48.174;11.756;2024-01-25T11:12:49;12.07;;;3.47;;
10232;SDS011;5161;48.174;11.756;2024-01-25T11:15:35;10.67;;;3.77;;
10232;SDS011;5161;48.174;11.756;2024-01-25T11:18:02;12.00;;;4.13;;
10232;SDS011;5161;48.174;11.756;2024-01-25T11:20:31;12.70;;;3.90;;
10232;SDS011;5161;48.174;11.756;2024-01-25T11:23:01;10.80;;;3.83;;
10232;SDS011;5161;48.174;11.756;2024-01-25T11:25:29;13.10;;;3.60;;
10232;SDS011;5161;48.174;11.756;2024-01-25T11:27:55;10.70;;;3.87;;
10232;SDS011;5161;48.174;11.756;2024-01-25T11:30:21;13.30;;;3.53;;
10232;SDS011;5161;48.174;11.756;2024-01-25T11:32:47;12.00;;;3.70;;
10232;SDS011;5161;48.174;11.756;2024-01-25T11:35:13;11.03;;;3.30;;
10232;SDS011;5161;48.174;11.756;2024-01-25T11:37:42;9.83;;;3.30;;
10232;SDS011;5161;48.174;11.756;2024-01-25T11:40:10;11.10;;;3.97;;
10232;SDS011;5161;48.174;11.756;2024-01-25T11:42:37;11.73;;;4.03;;
10232;SDS011;5161;48.174;11.756;2024-01-25T11:45:08;9.40;;;3.53;;
10232;SDS011;5161;48.174;11.756;2024-01-25T11:47:36;11.63;;;3.60;;
10232;SDS011;5161;48.174;11.756;2024-01-25T11:50:02;11.40;;;3.67;;
10232;SDS011;5161;48.174;11.756;2024-01-25T11:52:29;11.43;;;3.53;;
10232;SDS011;5161;48.174;11.756;2024-01-25T11:54:57;13.87;;;4.50;;
10232;SDS011;5161;48.174;11.756;2024-01-25T11:57:23;8.53;;;3.70;;
10232;SDS011;5161;48.174;11.756;2024-01-25T11:59:49;10.43;;;3.77;;
10232;SDS011;5161;48.174;11.756;2024-01-25T12:02:15;11.57;;;3.87;;
10232;SDS011;5161;48.174;11.756;2024-01-25T12:04:41;11.73;;;4.07;;
10232;SDS011;5161;48.174;11.756;2024-01-25T12:07:06;12.80;;;4.10;;
10232;SDS011;5161;48.174;11.756;2024-01-25T12:09:32;12.70;;;4.27;;
10232;SDS011;5161;48.174;11.756;2024-01-25T12:12:00;14.23;;;4.37;;
10232;SDS011;5161;48.174;11.756;2024-01-25T12:14:27;13.43;;;5.77;;
10232;SDS011;5161;48.174;11.756;2024-01-25T12:16:55;14.23;;;4.37;;
10232;SDS011;5161;48.174;11.756;2024-01-25T12:19:20;9.90;;;4.37;;
10232;SDS011;5161;48.174;11.756;2024-01-25T12:21:46;10.20;;;3.90;;
10232;SDS011;5161;48.174;11.756;2024-01-25T12:24:12;9.67;;;3.50;;
10232;SDS011;5161;48.174;11.756;2024-01-25T12:26:38;12.07;;;3.40;;
10232;SDS011;5161;48.174;11.756;2024-01-25T12:29:03;9.77;;;3.50;;
10232;SDS011;5161;48.174;11.756;2024-01-25T12:31:30;10.57;;;4.00;;
10232;SDS011;5161;48.174;11.756;2024-01-25T12:33:55;9.03;;;3.43;;
10232;SDS011;5161;48.174;11.756;2024-01-25T12:36:22;12.93;;;4.10;;
10232;SDS011;5161;48.174;11.756;2024-01-25T12:38:47;12.30;;;3.63;;
10232;SDS011;5161;48.174;11.756;2024-01-25T12:41:14;12.10;;;4.33;;
10232;SDS011;5161;48.174;11.756;2024-01-25T12:43:39;11.53;;;3.40;;
10232;SDS011;5161;48.174;11.756;2024-01-25T12:46:05;8.97;;;3.30;;
10232;SDS011;5161;48.174;11.756;2024-01-25T12:48:31;9.93;;;3.53;;
10232;SDS011;5161;48.174;11.756;2024-01-25T12:50:56;7.73;;;3.10;;
10232;SDS011;5161;48.174;11.756;2024-01-25T12:53:23;12.17;;;3.47;;
10232;SDS011;5161;48.174;11.756;2024-01-25T12:55:49;7.97;;;3.10;;
10232;SDS011;5161;48.174;11.756;2024-01-25T12:58:14;12.03;;;3.30;;
10232;SDS011;5161;48.174;11.756;2024-01-25T13:00:40;8.53;;;3.30;;
10232;SDS011;5161;48.174;11.756;2024-01-25T13:03:05;11.70;;;3.30;;
10232;SDS011;5161;48.174;11.756;2024-01-25T13:05:31;8.07;;;3.30;;
10232;SDS011;5161;48.174;11.756;2024-01-25T13:07:59;9.03;;;3.57;;
10232;SDS011;5161;48.174;11.756;2024-01-25T13:10:26;10.80;;;3.43;;
10232;SDS011;5161;48.174;11.756;2024-01-25T13:12:51;9.70;;;3.07;;
10232;SDS011;5161;48.174;11.756;2024-01-25T13:15:17;11.10;;;3.20;;
10232;SDS011;5161;48.174;11.756;2024-01-25T13:17:44;9.37;;;3.73;;
10232;SDS011;5161;48.174;11.756;2024-01-25T13:20:10;13.33;;;4.30;;
10232;SDS011;5161;48.174;11.756;2024-01-25T13:22:35;11.70;;;4.00;;
10232;SDS011;5161;48.174;11.756;2024-01-25T13:25:02;13.50;;;4.10;;
10232;SDS011;5161;48.174;11.756;2024-01-25T13:27:28;11.10;;;4.00;;
10232;SDS011;5161;48.174;11.756;2024-01-25T13:29:54;9.57;;;3.03;;
10232;SDS011;5161;48.174;11.756;2024-01-25T13:32:21;9.57;;;3.50;;
10232;SDS011;5161;48.174;11.756;2024-01-25T13:34:48;10.73;;;3.43;;
10232;SDS011;5161;48.174;11.756;2024-01-25T13:37:13;8.53;;;3.23;;
10232;SDS011;5161;48.174;11.756;2024-01-25T13:39:39;7.73;;;3.00;;
10232;SDS011;5161;48.174;11.756;2024-01-25T13:42:04;7.20;;;3.43;;
10232;SDS011;5161;48.174;11.756;2024-01-25T13:44:30;8.40;;;3.07;;
10232;SDS011;5161;48.174;11.756;2024-01-25T13:46:56;8.87;;;3.00;;
10232;SDS011;5161;48.174;11.756;2024-01-25T13:49:21;10.93;;;3.57;;
10232;SDS011;5161;48.174;11.756;2024-01-25T13:51:47;10.40;;;3.43;;
10232;SDS011;5161;48.174;11.756;2024-01-25T13:54:13;7.77;;;3.20;;
10232;SDS011;5161;48.174;11.756;2024-01-25T13:56:38;8.67;;;3.63;;
10232;SDS011;5161;48.174;11.756;2024-01-25T13:59:04;14.37;;;3.87;;
10232;SDS011;5161;48.174;11.756;2024-01-25T14:01:30;11.00;;;3.17;;
10232;SDS011;5161;48.174;11.756;2024-01-25T14:03:56;10.63;;;3.37;;
10232;SDS011;5161;48.174;11.756;2024-01-25T14:06:22;10.30;;;3.10;;
10232;SDS011;5161;48.174;11.756;2024-01-25T14:08:48;11.33;;;3.23;;
10232;SDS011;5161;48.174;11.756;2024-01-25T14:11:14;8.43;;;3.10;;
10232;SDS011;5161;48.174;11.756;2024-01-25T14:13:40;11.93;;;3.27;;
10232;SDS011;5161;48.174;11.756;2024-01-25T14:16:06;10.00;;;3.07;;
10232;SDS011;5161;48.174;11.756;2024-01-25T14:18:39;8.70;;;3.50;;
10232;SDS011;5161;48.174;11.756;2024-01-25T14:21:05;12.27;;;3.97;;
10232;SDS011;5161;48.174;11.756;2024-01-25T14:23:31;10.10;;;3.40;;
10232;SDS011;5161;48.174;11.756;2024-01-25T14:25:57;9.73;;;3.07;;
10232;SDS011;5161;48.174;11.756;2024-01-25T14:28:22;8.90;;;3.00;;
10232;SDS011;5161;48.174;11.756;2024-01-25T14:30:48;13.70;;;3.83;;